Lakewood, Ohio
Current Conditions -  °F | °C
As of 8:53 AM on Saturday 25 Oct 2014 (Local Time) from KBKL Reporting Station
Overcast Overcast  
Wind Chill: 56°   Ceiling: 8000
Heat Index: 56°   Visibility: 10mi
Dew Point: 48°   Wind: 14mph
Humidity: 75%   Direction: 190°S
Pressure: 29.88"   Gusts: 21mph
Location:  41.48°N, 81.78°W
Report Text: KBKL 251253Z 19012G18KT 10SM BKN080 OVC100 13/09 A2988 RMK AO2 SLP119 T01330089
Loading
Personal Weather Stations






























Interactive Weather Map
Tropical Storm Tracking
New forecast layout! Learn more

10-Day Weather Forecast

Advertisements
Track Severe Weather on mobile